createdAt,value
2022-08-19T00:00:20.101Z,99310.88
2022-08-19T00:02:50.062Z,99313.13
2022-08-19T00:05:17.918Z,99317.91
2022-08-19T00:07:45.160Z,99321.69
2022-08-19T00:10:13.445Z,99315.56
2022-08-19T00:12:46.989Z,99315.13
2022-08-19T00:15:15.847Z,99309.34
2022-08-19T00:17:43.972Z,99316.06
2022-08-19T00:20:12.090Z,99318.31
2022-08-19T00:22:39.841Z,99321.31
2022-08-19T00:25:07.441Z,99312.44
2022-08-19T00:27:34.708Z,99313.53
2022-08-19T00:30:04.284Z,99315.34
2022-08-19T00:32:31.471Z,99313.88
2022-08-19T00:35:00.136Z,99321.41
2022-08-19T00:37:27.861Z,99312.09
2022-08-19T00:39:55.062Z,99318.78
2022-08-19T00:42:22.690Z,99315.19
2022-08-19T00:44:51.569Z,99316.25
2022-08-19T00:47:18.785Z,99315.59
2022-08-19T00:49:54.476Z,99316.25
2022-08-19T00:52:23.994Z,99303.69
2022-08-19T00:54:52.895Z,99305.56
2022-08-19T00:57:21.319Z,99311.47
2022-08-19T01:00:00.416Z,99311.16
2022-08-19T01:02:29.536Z,99317.75
2022-08-19T01:04:56.967Z,99310.06
2022-08-19T01:07:24.165Z,99297.03
2022-08-19T01:09:51.392Z,99299.28
2022-08-19T01:12:18.861Z,99300.66
2022-08-19T01:14:47.522Z,99304.31
2022-08-19T01:17:14.736Z,99298.34
2022-08-19T01:19:44.326Z,99292.03
2022-08-19T01:22:27.360Z,99289.16
2022-08-19T01:24:58.319Z,99301.31
2022-08-19T01:27:26.661Z,99296.62
2022-08-19T01:29:56.681Z,99292.34
2022-08-19T01:32:32.446Z,99290.84
2022-08-19T01:35:02.841Z,99286.50
2022-08-19T01:37:31.570Z,99287.69
2022-08-19T01:39:58.978Z,99283.41
2022-08-19T01:42:30.075Z,99278.06
2022-08-19T01:44:58.232Z,99267.06
2022-08-19T01:47:25.455Z,99261.09
2022-08-19T01:49:52.678Z,99263.13
2022-08-19T01:52:20.537Z,99262.25
2022-08-19T01:54:47.734Z,99257.78
2022-08-19T01:57:14.929Z,99247.53
2022-08-19T01:59:42.710Z,99247.97
2022-08-19T02:02:10.185Z,99243.12
2022-08-19T02:04:39.682Z,99244.09
2022-08-19T02:07:07.339Z,99246.75
2022-08-19T02:09:35.092Z,99245.87
2022-08-19T02:12:02.585Z,99241.59
2022-08-19T02:14:29.777Z,99243.53
2022-08-19T02:16:57.053Z,99246.94
2022-08-19T02:19:24.503Z,99247.97
2022-08-19T02:21:51.668Z,99249.28
2022-08-19T02:24:18.810Z,99234.66
2022-08-19T02:26:46.246Z,99224.41
2022-08-19T02:29:13.417Z,99228.34
2022-08-19T02:31:40.595Z,99228.12
2022-08-19T02:34:08.037Z,99233.47
2022-08-19T02:36:35.279Z,99238.78
2022-08-19T02:39:02.452Z,99238.16
2022-08-19T02:41:31.622Z,99239.25
2022-08-19T02:44:26.524Z,99248.19
2022-08-19T02:46:47.485Z,99248.41
2022-08-19T02:49:17.537Z,99250.56
2022-08-19T02:51:45.442Z,99256.97
2022-08-19T02:54:13.522Z,99262.72
2022-08-19T02:56:41.580Z,99251.44
2022-08-19T02:59:11.955Z,99268.28
2022-08-19T03:01:41.686Z,99256.09
2022-08-19T03:04:09.926Z,99263.97
2022-08-19T03:06:38.127Z,99258.22
2022-08-19T03:09:05.599Z,99262.72
2022-08-19T03:11:33.072Z,99268.50
2022-08-19T03:14:01.104Z,99275.72
2022-08-19T03:16:29.346Z,99277.03
2022-08-19T03:19:01.751Z,99277.66
2022-08-19T03:21:30.731Z,99281.06
2022-08-19T03:23:58.751Z,99281.47
2022-08-19T03:26:26.113Z,99283.84
2022-08-19T03:28:58.289Z,99284.28
2022-08-19T03:31:44.389Z,99285.13
2022-08-19T03:34:16.291Z,99289.81
2022-08-19T03:36:43.434Z,99290.03
2022-08-19T03:39:10.716Z,99287.91
2022-08-19T03:41:45.343Z,99293.66
2022-08-19T03:44:18.452Z,99297.06
2022-08-19T03:46:50.175Z,99295.56
2022-08-19T03:49:18.360Z,99299.31
2022-08-19T03:51:46.729Z,99301.53
2022-08-19T03:54:14.879Z,99307.50
2022-08-19T03:56:42.561Z,99298.44
2022-08-19T03:59:12.703Z,99295.53
2022-08-19T04:01:39.885Z,99300.81
2022-08-19T04:04:07.337Z,99301.06
2022-08-19T04:06:38.733Z,99302.97
2022-08-19T04:09:08.418Z,99305.94
2022-08-19T04:11:43.984Z,99311.50
2022-08-19T04:14:13.285Z,99318.56
2022-08-19T04:16:40.469Z,99318.75
2022-08-19T04:19:07.781Z,99318.38
2022-08-19T04:21:35.268Z,99318.38
2022-08-19T04:24:03.843Z,99316.84
2022-08-19T04:26:35.712Z,99319.47
2022-08-19T04:29:09.224Z,99321.22
2022-08-19T04:31:39.061Z,99322.56
2022-08-19T04:34:07.354Z,99322.34
2022-08-19T04:36:35.325Z,99322.13
2022-08-19T04:39:09.738Z,99326.50
2022-08-19T04:41:55.861Z,99326.72
2022-08-19T04:44:23.056Z,99321.81
2022-08-19T04:46:51.965Z,99317.75
2022-08-19T04:49:23.279Z,99326.72
2022-08-19T04:51:52.307Z,99323.94
2022-08-19T04:54:33.774Z,99331.56
2022-08-19T04:57:07.665Z,99334.75
2022-08-19T04:59:36.127Z,99332.66
2022-08-19T05:02:04.119Z,99337.59
2022-08-19T05:04:33.215Z,99337.78
2022-08-19T05:07:01.946Z,99336.09
2022-08-19T05:09:42.124Z,99333.75
2022-08-19T05:12:17.901Z,99333.94
2022-08-19T05:14:46.586Z,99332.47
2022-08-19T05:17:33.556Z,99334.53
2022-08-19T05:20:20.536Z,99333.53
2022-08-19T05:22:48.031Z,99326.72
2022-08-19T05:25:19.570Z,99337.16
2022-08-19T05:27:47.041Z,99338.87
2022-08-19T05:30:14.237Z,99341.44
2022-08-19T05:32:41.868Z,99333.53
2022-08-19T05:35:09.306Z,99338.78
2022-08-19T05:37:36.533Z,99344.19
2022-08-19T05:40:04.595Z,99343.13
2022-08-19T05:42:31.937Z,99341.88
2022-08-19T05:44:59.134Z,99346.16
2022-08-19T05:47:26.623Z,99343.75
2022-08-19T05:49:53.832Z,99343.34
2022-08-19T05:52:25.869Z,99347.22
2022-08-19T05:54:57.185Z,99337.41
2022-08-19T05:57:25.003Z,99340.47
2022-08-19T05:59:58.330Z,99335.69
2022-08-19T06:02:27.936Z,99339.50
2022-08-19T06:04:55.702Z,99343.56
2022-08-19T06:07:23.004Z,99332.91
2022-08-19T06:09:59.181Z,99328.44
2022-08-19T06:12:34.144Z,99331.81
2022-08-19T06:15:05.210Z,99330.31
2022-08-19T06:17:32.773Z,99332.47
2022-08-19T06:20:00.419Z,99330.44
2022-08-19T06:22:28.225Z,99323.63
2022-08-19T06:24:56.425Z,99317.91
2022-08-19T06:27:23.876Z,99319.25
2022-08-19T06:29:51.165Z,99311.19
2022-08-19T06:32:19.744Z,99312.75
2022-08-19T06:34:47.054Z,99318.44
2022-08-19T06:37:14.526Z,99309.22
2022-08-19T06:39:42.868Z,99304.47
2022-08-19T06:42:12.654Z,99304.78
2022-08-19T06:44:43.351Z,99299.31
2022-08-19T06:47:14.859Z,99305.88
2022-08-19T06:49:51.313Z,99302.63
2022-08-19T06:52:18.752Z,99314.97
2022-08-19T06:54:55.504Z,99320.81
2022-08-19T06:57:25.086Z,99323.50
2022-08-19T06:59:52.538Z,99338.81
2022-08-19T07:02:20.495Z,99340.22
2022-08-19T07:04:48.154Z,99340.72
2022-08-19T07:07:21.848Z,99347.47
2022-08-19T07:09:54.404Z,99341.06
2022-08-19T07:12:35.646Z,99353.69
2022-08-19T07:15:04.794Z,99347.44
2022-08-19T07:17:34.647Z,99352.00
2022-08-19T07:20:05.124Z,99353.59
2022-08-19T07:22:35.021Z,99351.22
2022-08-19T07:25:04.862Z,99358.19
2022-08-19T07:27:33.673Z,99358.53
2022-08-19T07:30:01.330Z,99354.75
2022-08-19T07:32:28.615Z,99355.19
2022-08-19T07:34:56.622Z,99353.13
2022-08-19T07:37:28.340Z,99348.94
2022-08-19T07:39:58.671Z,99361.84
2022-08-19T07:42:26.582Z,99354.97
2022-08-19T07:44:53.752Z,99340.66
2022-08-19T07:47:49.529Z,99349.72
2022-08-19T07:50:10.203Z,99346.88
2022-08-19T07:52:39.633Z,99340.94
2022-08-19T07:55:08.089Z,99346.50
2022-08-19T07:57:55.979Z,99356.69
2022-08-19T08:00:24.638Z,99366.91
2022-08-19T08:02:55.645Z,99357.84
2022-08-19T08:05:43.867Z,99363.09
2022-08-19T08:08:30.698Z,99360.16
2022-08-19T08:10:57.923Z,99347.88
2022-08-19T08:13:25.634Z,99350.72
2022-08-19T08:15:56.028Z,99357.34
2022-08-19T08:18:27.913Z,99350.03
2022-08-19T08:20:56.138Z,99354.88
2022-08-19T08:23:23.554Z,99358.03
2022-08-19T08:25:50.744Z,99358.38
2022-08-19T08:28:18.546Z,99350.41
2022-08-19T08:30:49.138Z,99350.72
2022-08-19T08:33:18.751Z,99350.50
2022-08-19T08:36:00.628Z,99338.19
2022-08-19T08:38:29.905Z,99339.94
2022-08-19T08:41:10.617Z,99333.22
2022-08-19T08:43:38.587Z,99317.75
2022-08-19T08:46:07.509Z,99317.34
2022-08-19T08:48:40.480Z,99324.97
2022-08-19T08:51:12.604Z,99334.28
2022-08-19T08:53:41.968Z,99340.75
2022-08-19T08:56:13.488Z,99345.66
2022-08-19T08:58:44.916Z,99328.69
2022-08-19T09:01:12.762Z,99328.09
2022-08-19T09:03:43.182Z,99325.09
2022-08-19T09:06:17.461Z,99321.09
2022-08-19T09:08:50.213Z,99326.47
2022-08-19T09:11:43.013Z,99322.19
2022-08-19T09:14:34.928Z,99318.91
2022-08-19T09:17:08.587Z,99317.50
2022-08-19T09:19:56.304Z,99311.78
2022-08-19T09:22:26.100Z,99311.88
2022-08-19T09:24:55.302Z,99313.69
2022-08-19T09:27:41.896Z,99302.06
2022-08-19T09:30:18.434Z,99294.63
2022-08-19T09:32:46.555Z,99303.72
2022-08-19T09:35:14.419Z,99298.16
2022-08-19T09:37:42.000Z,99304.75
2022-08-19T09:40:11.962Z,99297.50
2022-08-19T09:42:39.639Z,99303.19
2022-08-19T09:45:18.843Z,99295.78
2022-08-19T09:47:46.305Z,99298.66
2022-08-19T09:50:16.641Z,99292.44
2022-08-19T09:52:55.134Z,99279.66
2022-08-19T09:55:31.080Z,99280.75
2022-08-19T09:58:01.911Z,99276.25
2022-08-19T10:00:30.030Z,99269.63
2022-08-19T10:02:58.015Z,99275.41
2022-08-19T10:05:44.067Z,99275.38
2022-08-19T10:08:13.705Z,99271.34
2022-08-19T10:10:46.755Z,99275.41
2022-08-19T10:13:19.658Z,99274.06
2022-08-19T10:15:48.180Z,99263.91
2022-08-19T10:18:19.308Z,99271.66
2022-08-19T10:20:51.309Z,99261.53
2022-08-19T10:23:21.145Z,99265.03
2022-08-19T10:25:48.866Z,99260.44
2022-08-19T10:28:16.213Z,99255.97
2022-08-19T10:30:55.188Z,99262.47
2022-08-19T10:33:38.608Z,99263.84
2022-08-19T10:36:11.825Z,99272.13
2022-08-19T10:38:39.114Z,99268.91
2022-08-19T10:41:20.485Z,99257.09
2022-08-19T10:43:48.699Z,99265.56
2022-08-19T10:46:16.799Z,99260.38
2022-08-19T10:48:44.616Z,99250.91
2022-08-19T10:51:30.940Z,99252.47
2022-08-19T10:53:59.209Z,99260.09
2022-08-19T10:56:45.549Z,99255.19
2022-08-19T10:59:16.293Z,99264.72
2022-08-19T11:01:44.294Z,99264.44
2022-08-19T11:04:12.265Z,99264.78
2022-08-19T11:06:39.843Z,99254.66
2022-08-19T11:09:07.310Z,99251.63
2022-08-19T11:11:40.470Z,99247.44
2022-08-19T11:14:09.070Z,99256.59
2022-08-19T11:16:36.258Z,99257.91
2022-08-19T11:19:03.657Z,99259.84
2022-08-19T11:21:33.236Z,99251.31
2022-08-19T11:24:02.291Z,99251.69
2022-08-19T11:26:30.437Z,99259.19
2022-08-19T11:28:58.490Z,99257.91
2022-08-19T11:31:28.967Z,99261.28
2022-08-19T11:33:57.420Z,99259.28
2022-08-19T11:36:24.948Z,99249.72
2022-08-19T11:38:52.172Z,99262.72
2022-08-19T11:41:20.775Z,99258.41
2022-08-19T11:43:48.326Z,99260.38
2022-08-19T11:46:15.994Z,99254.84
2022-08-19T11:48:43.390Z,99255.75
2022-08-19T11:51:13.118Z,99248.03
2022-08-19T11:53:40.381Z,99242.44
2022-08-19T11:56:07.942Z,99237.06
2022-08-19T11:58:35.734Z,99233.25
2022-08-19T12:01:06.430Z,99247.19
2022-08-19T12:03:34.958Z,99237.47
2022-08-19T12:06:06.395Z,99249.88
2022-08-19T12:08:34.189Z,99243.91
2022-08-19T12:11:02.526Z,99246.97
2022-08-19T12:13:31.085Z,99244.59
2022-08-19T12:15:59.453Z,99248.00
2022-08-19T12:18:26.768Z,99241.91
2022-08-19T12:20:55.623Z,99243.19
2022-08-19T12:23:24.091Z,99249.66
2022-08-19T12:25:52.656Z,99243.03
2022-08-19T12:28:20.956Z,99247.69
2022-08-19T12:30:49.151Z,99253.25
2022-08-19T12:33:18.018Z,99243.94
2022-08-19T12:35:47.639Z,99235.16
2022-08-19T12:38:15.648Z,99227.06
2022-08-19T12:40:43.031Z,99226.84
2022-08-19T12:43:10.630Z,99219.59
2022-08-19T12:45:38.643Z,99217.72
2022-08-19T12:48:33.843Z,99217.53
2022-08-19T12:50:55.656Z,99205.63
2022-08-19T12:53:23.212Z,99208.28
2022-08-19T12:55:56.926Z,99210.06
2022-08-19T12:58:27.310Z,99212.03
2022-08-19T13:00:54.922Z,99205.75
2022-08-19T13:03:23.599Z,99202.63
2022-08-19T13:05:51.500Z,99206.78
2022-08-19T13:08:18.678Z,99198.19
2022-08-19T13:10:46.024Z,99197.44
2022-08-19T13:13:13.538Z,99202.22
2022-08-19T13:15:41.469Z,99200.87
2022-08-19T13:18:10.091Z,99195.47
2022-08-19T13:20:37.967Z,99194.63
2022-08-19T13:23:05.708Z,99194.16
2022-08-19T13:25:33.273Z,99194.22
2022-08-19T13:28:00.956Z,99190.47
2022-08-19T13:30:47.054Z,99191.53
2022-08-19T13:33:16.610Z,99200.31
2022-08-19T13:35:45.245Z,99208.75
2022-08-19T13:38:12.857Z,99216.03
2022-08-19T13:40:41.347Z,99221.75
2022-08-19T13:43:17.433Z,99227.34
2022-08-19T13:45:50.950Z,99249.88
2022-08-19T13:48:19.735Z,99248.75
2022-08-19T13:50:48.375Z,99252.91
2022-08-19T13:53:16.270Z,99260.06
2022-08-19T13:55:43.821Z,99257.88
2022-08-19T13:58:11.713Z,99259.84
2022-08-19T14:00:40.332Z,99259.38
2022-08-19T14:03:09.408Z,99257.88
2022-08-19T14:05:37.207Z,99247.47
2022-08-19T14:08:04.616Z,99246.16
2022-08-19T14:10:32.957Z,99242.38
2022-08-19T14:13:01.228Z,99246.16
2022-08-19T14:15:29.673Z,99235.44
2022-08-19T14:17:58.587Z,99237.47
2022-08-19T14:20:26.472Z,99230.34
2022-08-19T14:22:54.002Z,99227.28
2022-08-19T14:25:22.697Z,99229.84
2022-08-19T14:27:51.102Z,99228.63
2022-08-19T14:30:19.736Z,99231.97
2022-08-19T14:32:47.521Z,99228.88
2022-08-19T14:35:16.257Z,99229.25
2022-08-19T14:37:46.195Z,99230.00
2022-08-19T14:40:16.046Z,99233.25
2022-08-19T14:42:46.433Z,99239.16
2022-08-19T14:45:14.444Z,99232.44
2022-08-19T14:47:42.705Z,99242.78
2022-08-19T14:50:17.866Z,99245.22
2022-08-19T14:52:46.573Z,99247.66
2022-08-19T14:55:13.791Z,99245.63
2022-08-19T14:57:44.125Z,99239.03
2022-08-19T15:00:14.789Z,99241.22
2022-08-19T15:02:42.381Z,99246.63
2022-08-19T15:05:09.667Z,99258.66
2022-08-19T15:07:42.019Z,99263.94
2022-08-19T15:10:10.557Z,99264.50
2022-08-19T15:12:39.423Z,99263.84
2022-08-19T15:15:07.600Z,99276.16
2022-08-19T15:17:45.337Z,99282.66
2022-08-19T15:20:23.764Z,99297.19
2022-08-19T15:22:51.138Z,99300.72
2022-08-19T15:25:19.881Z,99298.78
2022-08-19T15:27:49.356Z,99303.84
2022-08-19T15:30:20.209Z,99308.41
2022-08-19T15:32:49.163Z,99313.78
2022-08-19T15:35:16.614Z,99314.31
2022-08-19T15:37:44.595Z,99297.66
2022-08-19T15:40:12.417Z,99279.13
2022-08-19T15:42:42.361Z,99266.50
2022-08-19T15:45:10.238Z,99239.75
2022-08-19T15:47:39.059Z,99254.03
2022-08-19T15:50:32.632Z,99260.69
2022-08-19T15:53:03.435Z,99242.00
2022-08-19T15:55:34.680Z,99237.34
2022-08-19T15:58:28.469Z,99232.81
2022-08-19T16:01:20.852Z,99233.69
2022-08-19T16:04:13.718Z,99221.19
2022-08-19T16:06:44.491Z,99230.50
2022-08-19T16:09:13.102Z,99225.72
2022-08-19T16:11:45.624Z,99211.56
2022-08-19T16:14:14.667Z,99203.56
2022-08-19T16:16:41.899Z,99211.94
2022-08-19T16:19:10.660Z,99224.91
2022-08-19T16:21:41.838Z,99226.59
2022-08-19T16:24:10.585Z,99246.94
2022-08-19T16:26:37.845Z,99241.03
2022-08-19T16:29:08.855Z,99235.38
2022-08-19T16:31:39.939Z,99245.84
2022-08-19T16:34:07.444Z,99274.63
2022-08-19T16:36:34.623Z,99296.28
2022-08-19T16:39:01.842Z,99310.53
2022-08-19T16:41:29.338Z,99334.31
2022-08-19T16:43:56.544Z,99339.31
2022-08-19T16:46:27.109Z,99361.56
2022-08-19T16:48:54.709Z,99347.50
2022-08-19T16:51:22.951Z,99357.84
2022-08-19T16:53:52.702Z,99354.84
2022-08-19T16:56:21.237Z,99356.25
2022-08-19T16:58:50.199Z,99368.00
2022-08-19T17:01:17.726Z,99367.84
2022-08-19T17:03:45.212Z,99378.91
2022-08-19T17:06:18.440Z,99374.31
2022-08-19T17:08:49.903Z,99356.56
2022-08-19T17:11:20.185Z,99339.78
2022-08-19T17:13:48.406Z,99297.47
2022-08-19T17:16:17.039Z,99252.19
2022-08-19T17:18:44.286Z,99232.66
2022-08-19T17:21:13.281Z,99220.38
2022-08-19T17:23:43.689Z,99200.37
2022-08-19T17:26:18.380Z,99187.50
2022-08-19T17:28:49.088Z,99183.88
2022-08-19T17:31:16.636Z,99170.63
2022-08-19T17:33:48.604Z,99156.16
2022-08-19T17:36:19.727Z,99146.41
2022-08-19T17:38:46.961Z,99125.28
2022-08-19T17:41:14.342Z,99127.06
2022-08-19T17:43:43.749Z,99119.91
2022-08-19T17:46:17.641Z,99119.56
2022-08-19T17:48:51.804Z,99121.72
2022-08-19T17:51:22.029Z,99121.69
2022-08-19T17:53:50.841Z,99128.09
2022-08-19T17:56:18.524Z,99130.66
2022-08-19T17:58:57.645Z,99138.22
2022-08-19T18:01:50.638Z,99163.97
2022-08-19T18:04:28.217Z,99235.28
2022-08-19T18:06:57.075Z,99316.81
2022-08-19T18:09:28.766Z,99358.44
2022-08-19T18:12:06.155Z,99377.50
2022-08-19T18:14:35.019Z,99388.72
2022-08-19T18:17:05.876Z,99327.19
2022-08-19T18:19:42.101Z,99316.31
2022-08-19T18:22:35.455Z,99343.50
2022-08-19T18:25:08.117Z,99391.81
2022-08-19T18:27:35.562Z,99415.69
2022-08-19T18:30:03.829Z,99449.31
2022-08-19T18:32:34.380Z,99517.38
2022-08-19T18:35:02.194Z,99550.19
2022-08-19T18:37:29.388Z,99528.91
2022-08-19T18:40:15.407Z,99504.84
2022-08-19T18:43:04.560Z,99524.81
2022-08-19T18:45:50.359Z,99543.34
2022-08-19T18:48:36.758Z,99552.59
2022-08-19T18:51:03.994Z,99581.16
2022-08-19T18:53:32.318Z,99572.69
2022-08-19T18:55:59.891Z,99530.34
2022-08-19T18:58:32.416Z,99531.28
2022-08-19T19:01:00.812Z,99526.84
2022-08-19T19:03:28.031Z,99474.84
2022-08-19T19:05:55.317Z,99462.59
2022-08-19T19:08:27.091Z,99416.06
2022-08-19T19:10:55.794Z,99372.00
2022-08-19T19:13:23.292Z,99372.19
2022-08-19T19:15:50.498Z,99355.81
2022-08-19T19:18:18.030Z,99386.22
2022-08-19T19:20:45.537Z,99425.91
2022-08-19T19:23:15.852Z,99419.38
2022-08-19T19:25:49.771Z,99363.81
2022-08-19T19:28:25.819Z,99315.75
2022-08-19T19:30:57.489Z,99314.06
2022-08-19T19:33:26.086Z,99338.91
2022-08-19T19:35:53.908Z,99347.59
2022-08-19T19:38:22.703Z,99324.69
2022-08-19T19:40:54.830Z,99327.22
2022-08-19T19:43:22.239Z,99314.06
2022-08-19T19:45:49.785Z,99310.16
2022-08-19T19:48:17.051Z,99295.44
2022-08-19T19:50:44.612Z,99301.03
2022-08-19T19:53:15.123Z,99307.34
2022-08-19T19:55:42.524Z,99310.44
2022-08-19T19:58:09.724Z,99316.34
2022-08-19T20:00:37.224Z,99324.69
2022-08-19T20:03:04.960Z,99316.91
2022-08-19T20:05:32.189Z,99337.00
2022-08-19T20:08:19.002Z,99450.63
2022-08-19T20:10:46.947Z,99542.53
2022-08-19T20:13:16.956Z,99535.69
2022-08-19T20:15:44.200Z,99559.09
2022-08-19T20:18:13.404Z,99602.31
2022-08-19T20:20:40.897Z,99612.44
2022-08-19T20:23:08.523Z,99614.94
2022-08-19T20:25:38.084Z,99612.66
2022-08-19T20:28:05.770Z,99620.53
2022-08-19T20:30:33.578Z,99619.56
2022-08-19T20:33:07.052Z,99638.38
2022-08-19T20:35:36.389Z,99628.88
2022-08-19T20:38:04.888Z,99651.53
2022-08-19T20:40:34.165Z,99653.75
2022-08-19T20:43:02.489Z,99672.00
2022-08-19T20:45:33.631Z,99670.16
2022-08-19T20:48:02.846Z,99671.34
2022-08-19T20:50:32.182Z,99664.53
2022-08-19T20:53:09.680Z,99656.31
2022-08-19T20:55:37.262Z,99657.75
2022-08-19T20:58:04.507Z,99654.09
2022-08-19T21:00:31.692Z,99650.50
2022-08-19T21:02:59.215Z,99658.53
2022-08-19T21:05:30.450Z,99634.28
2022-08-19T21:07:58.148Z,99626.41
2022-08-19T21:10:26.392Z,99632.06
2022-08-19T21:12:53.634Z,99633.63
2022-08-19T21:15:21.165Z,99637.78
2022-08-19T21:17:48.851Z,99627.37
2022-08-19T21:20:16.125Z,99604.59
2022-08-19T21:22:43.289Z,99579.59
2022-08-19T21:25:10.975Z,99547.38
2022-08-19T21:27:38.323Z,99524.25
2022-08-19T21:30:05.833Z,99486.22
2022-08-19T21:32:33.322Z,99465.81
2022-08-19T21:35:02.133Z,99449.19
2022-08-19T21:37:29.736Z,99468.03
2022-08-19T21:39:57.781Z,99454.19
2022-08-19T21:42:25.460Z,99440.06
2022-08-19T21:44:52.693Z,99429.00
2022-08-19T21:47:20.359Z,99434.47
2022-08-19T21:49:47.819Z,99437.41
2022-08-19T21:52:20.625Z,99412.84
2022-08-19T21:54:48.092Z,99395.94
2022-08-19T21:57:15.436Z,99393.72
2022-08-19T21:59:44.162Z,99390.44
2022-08-19T22:02:20.395Z,99400.22
2022-08-19T22:04:52.353Z,99387.44
2022-08-19T22:07:20.334Z,99381.69
2022-08-19T22:09:47.822Z,99370.50
2022-08-19T22:12:23.324Z,99338.72
2022-08-19T22:14:51.741Z,99317.47
2022-08-19T22:17:20.076Z,99339.13
2022-08-19T22:19:47.663Z,99328.22
2022-08-19T22:22:22.201Z,99345.44
2022-08-19T22:24:50.157Z,99356.56
2022-08-19T22:27:17.453Z,99346.56
2022-08-19T22:29:44.628Z,99336.88
2022-08-19T22:32:27.015Z,99338.22
2022-08-19T22:34:57.542Z,99347.47
2022-08-19T22:37:25.411Z,99340.28
2022-08-19T22:39:53.314Z,99336.91
2022-08-19T22:42:20.870Z,99316.56
2022-08-19T22:44:48.828Z,99311.25
2022-08-19T22:47:20.534Z,99321.78
2022-08-19T22:49:48.240Z,99329.00
2022-08-19T22:52:19.045Z,99304.81
2022-08-19T22:54:47.118Z,99294.72
2022-08-19T22:57:14.682Z,99278.59
2022-08-19T22:59:42.166Z,99268.63
2022-08-19T23:02:09.475Z,99281.91
2022-08-19T23:04:36.925Z,99271.41
2022-08-19T23:07:05.444Z,99276.78
2022-08-19T23:09:32.926Z,99280.00
2022-08-19T23:12:00.762Z,99283.56
2022-08-19T23:14:28.280Z,99289.41
2022-08-19T23:16:58.836Z,99287.16
2022-08-19T23:19:26.932Z,99281.09
2022-08-19T23:21:54.199Z,99293.56
2022-08-19T23:24:21.641Z,99299.72
2022-08-19T23:27:07.798Z,99298.88
2022-08-19T23:29:53.810Z,99292.25
2022-08-19T23:32:21.466Z,99289.75
2022-08-19T23:34:48.652Z,99283.75
2022-08-19T23:37:16.095Z,99267.22
2022-08-19T23:39:43.643Z,99269.16
2022-08-19T23:42:12.848Z,99258.72
2022-08-19T23:44:51.255Z,99266.28
2022-08-19T23:47:21.451Z,99276.31
2022-08-19T23:49:48.990Z,99267.31
2022-08-19T23:52:16.172Z,99264.38
2022-08-19T23:54:44.109Z,99268.81
2022-08-19T23:57:14.725Z,99264.25
2022-08-19T23:59:42.803Z,99267.34
